Time;durP1;ratioP1;P1;durP2;ratioP2;P2;SDS_P1;SDS_P2;PMS_P1;PMS_P2;Temp;Humidity;BMP_temperature;BMP_pressure;BME280_temperature;BME280_humidity;BME280_pressure;Samples;Min_cycle;Max_cycle;Signal;HPM_P1;HPM_P2
2023/03/04 00:01:31;;;;;;;9.75;2.05;;;5.90;99.90;;;;;;5072178;28;20130;-67
2023/03/04 00:03:58;;;;;;;12.13;2.85;;;5.90;99.90;;;;;;5073389;28;20051;-67
2023/03/04 00:06:25;;;;;;;11.75;3.25;;;6.00;99.90;;;;;;5089509;28;20606;-67
2023/03/04 00:08:52;;;;;;;19.73;3.67;;;5.90;99.90;;;;;;5073228;28;20500;-65
2023/03/04 00:11:19;;;;;;;11.32;3.15;;;5.90;99.90;;;;;;5072942;28;20052;-66
2023/03/04 00:13:46;;;;;;;11.93;2.65;;;5.90;99.90;;;;;;5090163;28;20052;-65
2023/03/04 00:16:13;;;;;;;15.70;3.03;;;5.90;99.90;;;;;;5072393;28;20052;-66
2023/03/04 00:18:41;;;;;;;10.55;2.50;;;5.90;99.90;;;;;;5090138;28;20081;-67
2023/03/04 00:21:08;;;;;;;9.68;2.55;;;5.90;99.90;;;;;;5089913;28;20492;-66
2023/03/04 00:23:35;;;;;;;16.63;3.20;;;5.90;99.90;;;;;;5090707;28;20101;-67
2023/03/04 00:26:01;;;;;;;10.80;2.83;;;5.90;99.90;;;;;;5090719;28;20446;-66
2023/03/04 00:28:28;;;;;;;10.73;2.92;;;5.90;99.90;;;;;;5070643;28;20612;-66
2023/03/04 00:30:55;;;;;;;11.13;2.50;;;6.00;99.90;;;;;;5072441;28;20052;-66
2023/03/04 00:33:22;;;;;;;12.18;3.05;;;5.90;99.90;;;;;;5090146;28;20056;-66
2023/03/04 00:35:50;;;;;;;15.23;2.58;;;6.00;99.90;;;;;;5089994;28;20059;-67
2023/03/04 00:38:17;;;;;;;6.75;2.75;;;5.90;99.90;;;;;;5090364;28;20089;-66
2023/03/04 00:40:44;;;;;;;16.58;2.95;;;6.00;99.90;;;;;;5071016;28;20551;-67
2023/03/04 00:43:11;;;;;;;15.70;3.78;;;6.00;99.90;;;;;;5071711;28;20064;-67
2023/03/04 00:45:38;;;;;;;13.43;3.42;;;6.00;99.90;;;;;;5093627;28;20553;-67
2023/03/04 00:48:05;;;;;;;13.73;2.65;;;6.00;99.90;;;;;;5075630;28;20466;-65
2023/03/04 00:50:32;;;;;;;8.00;2.58;;;5.90;99.90;;;;;;5075757;28;20101;-67
2023/03/04 00:53:00;;;;;;;17.15;3.40;;;5.90;99.90;;;;;;5104497;28;20438;-66
2023/03/04 00:55:27;;;;;;;12.38;2.72;;;5.90;99.90;;;;;;5109653;28;20051;-66
2023/03/04 00:57:54;;;;;;;14.05;3.00;;;5.90;99.90;;;;;;5085425;28;20112;-66
2023/03/04 01:00:22;;;;;;;14.85;3.03;;;5.90;99.90;;;;;;5112010;28;20163;-66
2023/03/04 01:02:49;;;;;;;13.32;2.65;;;5.90;99.90;;;;;;5109521;28;20039;-66
2023/03/04 01:05:16;;;;;;;8.10;2.45;;;5.90;99.90;;;;;;5090271;28;20404;-66
2023/03/04 01:07:44;;;;;;;13.45;3.20;;;5.90;99.90;;;;;;5077266;28;20085;-66
2023/03/04 01:10:14;;;;;;;10.88;2.78;;;5.90;99.90;;;;;;5096129;28;20048;-67
2023/03/04 01:12:42;;;;;;;11.18;3.70;;;5.90;99.90;;;;;;5094199;28;20040;-65
2023/03/04 01:15:11;;;;;;;14.27;2.83;;;5.90;99.90;;;;;;5094713;28;20380;-66
2023/03/04 01:17:38;;;;;;;14.05;2.50;;;5.90;99.90;;;;;;5092531;28;20040;-66
2023/03/04 01:20:06;;;;;;;10.60;2.17;;;5.90;99.90;;;;;;5094029;28;20060;-66
2023/03/04 01:22:33;;;;;;;12.98;2.95;;;5.90;99.90;;;;;;5076684;28;20442;-66
2023/03/04 01:25:00;;;;;;;13.68;2.47;;;5.90;99.90;;;;;;5075053;28;20055;-67
2023/03/04 01:27:29;;;;;;;11.90;2.67;;;5.80;99.90;;;;;;5094376;28;20446;-66
2023/03/04 01:29:55;;;;;;;11.57;3.50;;;5.80;99.90;;;;;;5075928;28;20048;-66
2023/03/04 01:32:22;;;;;;;13.27;2.90;;;5.80;99.90;;;;;;5075745;28;20428;-66
2023/03/04 01:34:49;;;;;;;10.75;2.85;;;5.80;99.90;;;;;;5074824;28;20048;-65
2023/03/04 01:37:16;;;;;;;6.97;2.30;;;5.80;99.90;;;;;;5076061;28;20061;-66
2023/03/04 01:39:43;;;;;;;12.18;3.10;;;5.80;99.90;;;;;;5093354;28;20044;-65
2023/03/04 01:42:18;;;;;;;8.93;2.75;;;5.80;99.90;;;;;;5093650;28;20102;-66
2023/03/04 01:44:47;;;;;;;8.48;2.47;;;5.80;99.90;;;;;;5090991;28;20044;-65
2023/03/04 01:47:14;;;;;;;13.98;2.28;;;5.80;99.90;;;;;;5086056;28;20044;-66
2023/03/04 01:49:41;;;;;;;8.00;2.35;;;5.80;99.90;;;;;;5075879;28;20047;-66
2023/03/04 01:52:12;;;;;;;10.32;3.22;;;5.80;99.90;;;;;;5075073;28;20059;-66
2023/03/04 01:54:39;;;;;;;13.35;3.25;;;5.80;99.90;;;;;;5093379;28;20495;-67
2023/03/04 01:57:15;;;;;;;10.38;2.65;;;5.70;99.90;;;;;;5092069;28;20055;-66
2023/03/04 01:59:42;;;;;;;10.77;3.22;;;5.70;99.90;;;;;;5091930;28;20131;-66
2023/03/04 02:02:10;;;;;;;13.50;2.45;;;5.70;99.90;;;;;;5093124;28;20561;-66
2023/03/04 02:04:37;;;;;;;15.57;3.08;;;5.70;99.90;;;;;;5075194;28;20096;-66
2023/03/04 02:07:05;;;;;;;11.65;3.67;;;5.70;99.90;;;;;;5090658;28;20169;-66
2023/03/04 02:09:34;;;;;;;13.52;2.63;;;5.60;99.90;;;;;;5075428;28;20048;-66
2023/03/04 02:12:01;;;;;;;9.20;2.72;;;5.60;99.90;;;;;;5072910;28;20055;-66
2023/03/04 02:14:29;;;;;;;11.60;2.63;;;5.60;99.90;;;;;;5092393;28;20032;-66
2023/03/04 02:16:56;;;;;;;12.40;3.13;;;5.60;99.90;;;;;;5092724;28;20492;-66
2023/03/04 02:19:35;;;;;;;6.63;2.13;;;5.60;99.90;;;;;;5073953;28;20049;-67
2023/03/04 02:22:02;;;;;;;10.38;2.63;;;5.60;99.90;;;;;;5096898;28;20466;-66
2023/03/04 02:24:33;;;;;;;7.35;2.88;;;5.60;99.90;;;;;;5077463;28;20047;-65
2023/03/04 02:27:01;;;;;;;9.73;2.40;;;5.70;99.90;;;;;;5101636;28;20044;-67
2023/03/04 02:29:28;;;;;;;7.63;2.67;;;5.70;99.90;;;;;;5093620;28;20044;-66
2023/03/04 02:31:55;;;;;;;11.23;2.78;;;5.70;99.90;;;;;;5073025;28;20085;-65
2023/03/04 02:34:24;;;;;;;16.58;3.22;;;5.70;99.90;;;;;;5074414;28;20048;-65
2023/03/04 02:36:53;;;;;;;10.82;2.85;;;5.70;99.90;;;;;;5081629;28;20044;-66
2023/03/04 02:39:27;;;;;;;10.32;2.35;;;5.60;99.90;;;;;;5102647;28;20044;-67
2023/03/04 02:41:55;;;;;;;6.80;1.90;;;5.70;99.90;;;;;;5092601;28;20052;-66
2023/03/04 02:44:25;;;;;;;11.07;1.90;;;5.70;99.90;;;;;;5074723;28;20052;-66
2023/03/04 02:46:53;;;;;;;12.60;2.53;;;5.70;99.90;;;;;;5073150;28;20105;-66
2023/03/04 02:49:21;;;;;;;10.23;2.60;;;5.70;99.90;;;;;;5074212;28;20459;-66
2023/03/04 02:51:51;;;;;;;8.50;2.67;;;5.70;99.90;;;;;;5093238;28;20058;-66
2023/03/04 02:54:20;;;;;;;5.75;2.17;;;5.70;99.90;;;;;;5074178;28;20495;-66
2023/03/04 02:56:48;;;;;;;12.85;2.38;;;5.70;99.90;;;;;;5092242;28;20451;-67
2023/03/04 02:59:15;;;;;;;8.00;2.42;;;6.50;99.90;;;;;;5090587;28;20488;-66
2023/03/04 03:01:43;;;;;;;9.35;2.60;;;5.70;99.90;;;;;;5091854;28;20048;-66
2023/03/04 03:04:11;;;;;;;9.05;2.38;;;5.70;99.90;;;;;;5090078;28;20114;-66
2023/03/04 03:06:38;;;;;;;9.82;2.55;;;5.70;99.90;;;;;;5104804;28;20209;-66
2023/03/04 03:09:05;;;;;;;7.88;2.05;;;5.70;99.90;;;;;;5073797;28;20110;-66
2023/03/04 03:11:32;;;;;;;6.50;2.05;;;5.70;99.90;;;;;;5092204;28;20043;-66
2023/03/04 03:13:59;;;;;;;6.78;2.30;;;5.70;99.90;;;;;;5092811;28;20055;-66
2023/03/04 03:16:26;;;;;;;11.88;2.50;;;5.70;99.90;;;;;;5073439;28;20052;-66
2023/03/04 03:18:54;;;;;;;7.03;2.13;;;5.70;99.90;;;;;;5074689;28;20052;-66
2023/03/04 03:21:21;;;;;;;13.20;2.20;;;5.70;99.90;;;;;;5090727;28;20408;-66
2023/03/04 03:23:48;;;;;;;10.63;2.15;;;5.70;99.90;;;;;;5092170;28;20048;-66
2023/03/04 03:26:17;;;;;;;7.20;1.92;;;5.70;99.90;;;;;;5072382;28;20048;-67
2023/03/04 03:28:44;;;;;;;9.43;2.10;;;5.70;99.90;;;;;;5092567;28;20105;-67
2023/03/04 03:31:11;;;;;;;7.90;2.25;;;5.70;99.90;;;;;;5092135;28;20044;-66
2023/03/04 03:33:38;;;;;;;9.20;1.98;;;5.70;99.90;;;;;;5074443;28;20500;-66
2023/03/04 03:36:08;;;;;;;9.13;2.00;;;5.70;99.90;;;;;;5090482;28;20089;-66
2023/03/04 03:38:35;;;;;;;8.50;2.43;;;5.70;99.90;;;;;;5089756;28;20044;-67
2023/03/04 03:41:02;;;;;;;12.65;2.17;;;5.70;99.90;;;;;;5078378;28;20293;-66
2023/03/04 03:43:29;;;;;;;12.80;2.20;;;5.70;99.90;;;;;;5089252;28;20048;-66
2023/03/04 03:45:56;;;;;;;6.43;2.00;;;5.70;99.90;;;;;;5079074;28;20051;-66
2023/03/04 03:48:23;;;;;;;10.30;1.85;;;5.70;99.90;;;;;;5089241;28;20097;-67
2023/03/04 03:50:50;;;;;;;15.70;2.58;;;5.70;99.90;;;;;;5092564;28;20047;-66
2023/03/04 03:53:18;;;;;;;8.68;2.10;;;5.70;99.90;;;;;;5087188;28;20543;-66
2023/03/04 03:55:45;;;;;;;9.35;2.05;;;5.70;99.90;;;;;;5089628;28;20060;-67
2023/03/04 03:58:12;;;;;;;7.10;2.17;;;5.70;99.90;;;;;;5104860;28;20047;-66
2023/03/04 04:00:38;;;;;;;8.98;2.53;;;5.70;99.90;;;;;;5091547;28;20560;-67
2023/03/04 04:03:06;;;;;;;8.93;2.10;;;5.70;99.90;;;;;;5072466;28;20059;-68
2023/03/04 04:05:32;;;;;;;12.40;2.75;;;5.60;99.90;;;;;;5098703;28;20115;-66
2023/03/04 04:07:59;;;;;;;14.05;2.10;;;5.60;99.90;;;;;;5077976;28;20044;-67
2023/03/04 04:10:28;;;;;;;7.95;2.35;;;5.60;99.90;;;;;;5092246;28;20435;-67
2023/03/04 04:12:55;;;;;;;8.50;2.38;;;5.60;99.90;;;;;;5072458;28;20051;-66
2023/03/04 04:15:21;;;;;;;10.15;1.88;;;5.60;99.90;;;;;;5073316;28;20059;-66
2023/03/04 04:17:48;;;;;;;12.65;2.78;;;5.60;99.90;;;;;;5073511;28;20048;-66
2023/03/04 04:20:15;;;;;;;11.82;2.13;;;5.60;99.90;;;;;;5094136;28;20047;-66
2023/03/04 04:22:42;;;;;;;13.00;1.88;;;5.60;99.90;;;;;;5077449;28;20051;-66
2023/03/04 04:25:10;;;;;;;14.13;2.80;;;5.60;99.90;;;;;;5095188;28;20097;-66
2023/03/04 04:27:38;;;;;;;7.88;2.00;;;5.60;99.90;;;;;;5095156;28;20119;-66
2023/03/04 04:30:06;;;;;;;14.60;2.53;;;5.60;99.90;;;;;;5086096;28;20052;-66
2023/03/04 04:32:33;;;;;;;11.57;1.90;;;5.60;99.90;;;;;;5077365;28;20048;-66
2023/03/04 04:35:00;;;;;;;9.40;2.10;;;5.60;99.90;;;;;;5092267;28;20036;-66
2023/03/04 04:37:27;;;;;;;6.05;1.80;;;5.60;99.90;;;;;;5077359;28;20047;-66
2023/03/04 04:39:55;;;;;;;10.85;1.90;;;5.60;99.90;;;;;;5077407;28;20490;-65
2023/03/04 04:42:21;;;;;;;5.00;1.92;;;5.70;99.90;;;;;;5076366;28;20562;-65
2023/03/04 04:44:51;;;;;;;9.43;1.90;;;5.60;99.90;;;;;;5092914;28;20052;-66
2023/03/04 04:47:18;;;;;;;9.27;2.13;;;5.70;99.90;;;;;;5094367;28;20475;-66
2023/03/04 04:49:45;;;;;;;8.55;1.83;;;5.60;99.90;;;;;;5076843;28;20056;-66
2023/03/04 04:52:12;;;;;;;5.75;1.58;;;5.60;99.90;;;;;;5094816;28;21328;-66
2023/03/04 04:54:39;;;;;;;6.88;1.67;;;5.70;99.90;;;;;;5076190;28;20051;-66
2023/03/04 04:57:05;;;;;;;5.63;1.60;;;5.70;99.90;;;;;;5093805;28;20488;-66
2023/03/04 04:59:32;;;;;;;4.38;1.50;;;5.70;99.90;;;;;;5094242;28;20438;-67
2023/03/04 05:02:01;;;;;;;10.73;1.73;;;5.70;99.90;;;;;;5086252;28;20136;-66
2023/03/04 05:04:28;;;;;;;7.47;2.42;;;5.70;99.90;;;;;;5094773;28;20442;-66
2023/03/04 05:06:54;;;;;;;6.35;2.28;;;5.70;99.90;;;;;;5094841;28;20123;-65
2023/03/04 05:09:21;;;;;;;9.30;1.95;;;5.70;99.90;;;;;;5093467;28;20117;-65
2023/03/04 05:11:48;;;;;;;7.43;1.90;;;5.70;99.90;;;;;;5076240;28;20457;-66
2023/03/04 05:14:15;;;;;;;13.48;2.50;;;5.70;99.90;;;;;;5076177;28;20044;-66
2023/03/04 05:16:42;;;;;;;9.32;2.25;;;5.60;99.90;;;;;;5099318;28;20089;-67
2023/03/04 05:19:11;;;;;;;10.15;2.50;;;5.60;99.90;;;;;;5075485;28;20496;-65
2023/03/04 05:21:38;;;;;;;9.68;1.67;;;5.60;99.90;;;;;;5073861;28;20101;-65
2023/03/04 05:24:05;;;;;;;11.93;3.03;;;5.60;99.90;;;;;;5075537;28;20048;-67
2023/03/04 05:26:32;;;;;;;7.32;2.17;;;5.60;99.90;;;;;;5074180;28;20044;-66
2023/03/04 05:28:59;;;;;;;15.32;2.83;;;5.60;99.90;;;;;;5094375;28;20416;-65
2023/03/04 05:31:26;;;;;;;5.65;2.20;;;5.60;99.90;;;;;;5100127;28;20043;-65
2023/03/04 05:33:52;;;;;;;11.60;2.90;;;5.60;99.90;;;;;;5095894;28;20056;-65
2023/03/04 05:36:21;;;;;;;9.35;2.70;;;5.70;99.90;;;;;;5072717;28;20100;-65
2023/03/04 05:38:48;;;;;;;10.95;2.17;;;5.60;99.90;;;;;;5074704;28;20052;-66
2023/03/04 05:41:17;;;;;;;12.77;2.60;;;5.60;99.90;;;;;;5074552;28;20545;-66
2023/03/04 05:43:44;;;;;;;12.43;2.08;;;5.60;99.90;;;;;;5092212;28;20056;-66
2023/03/04 05:46:14;;;;;;;8.88;2.33;;;5.60;99.90;;;;;;5075181;28;20108;-66
2023/03/04 05:48:42;;;;;;;17.88;2.15;;;5.60;99.90;;;;;;5092879;28;20571;-66
2023/03/04 05:51:09;;;;;;;10.13;2.67;;;5.60;99.90;;;;;;5074311;28;20108;-66
2023/03/04 05:53:38;;;;;;;7.72;2.17;;;5.50;99.90;;;;;;5091257;28;20404;-66
2023/03/04 05:56:09;;;;;;;15.70;3.13;;;5.60;99.90;;;;;;5093038;28;20090;-66
2023/03/04 05:58:36;;;;;;;6.25;2.22;;;5.60;99.90;;;;;;5092587;28;20400;-67
2023/03/04 06:01:05;;;;;;;9.40;2.47;;;5.70;99.90;;;;;;5069219;28;20048;-67
2023/03/04 06:03:32;;;;;;;12.38;2.78;;;5.60;99.90;;;;;;5069960;28;20048;-66
2023/03/04 06:05:59;;;;;;;8.70;2.33;;;5.60;99.90;;;;;;5072186;28;20450;-66
2023/03/04 06:08:26;;;;;;;8.55;2.13;;;5.60;99.90;;;;;;5080828;28;20048;-67
2023/03/04 06:10:57;;;;;;;8.63;2.20;;;5.70;99.90;;;;;;5076401;28;20485;-66
2023/03/04 06:13:24;;;;;;;7.90;1.77;;;5.60;99.90;;;;;;5069431;28;20072;-66
2023/03/04 06:15:54;;;;;;;9.02;2.03;;;5.60;99.90;;;;;;5070652;28;20052;-67
2023/03/04 06:18:22;;;;;;;8.00;2.25;;;5.60;99.90;;;;;;5072545;28;20049;-67
2023/03/04 06:20:49;;;;;;;9.90;2.60;;;5.60;99.90;;;;;;5071619;28;20111;-67
2023/03/04 06:23:16;;;;;;;4.60;2.28;;;5.60;99.90;;;;;;5071677;28;20048;-66
2023/03/04 06:25:43;;;;;;;9.80;2.22;;;5.60;99.90;;;;;;5070419;28;20059;-66
2023/03/04 06:28:11;;;;;;;6.32;2.03;;;5.70;99.90;;;;;;5070450;28;20055;-66
2023/03/04 06:30:38;;;;;;;11.75;2.22;;;5.70;99.90;;;;;;5071060;28;20053;-65
2023/03/04 06:33:05;;;;;;;7.10;1.75;;;5.70;99.90;;;;;;5071797;28;20248;-67
2023/03/04 06:35:32;;;;;;;8.48;2.20;;;5.70;99.90;;;;;;5070845;28;20052;-66
2023/03/04 06:37:59;;;;;;;7.00;2.13;;;5.70;99.90;;;;;;5071042;28;20056;-65
2023/03/04 06:40:26;;;;;;;9.75;2.00;;;5.70;99.90;;;;;;5089448;28;20117;-65
2023/03/04 06:42:53;;;;;;;7.60;1.42;;;5.70;99.90;;;;;;5077645;28;20412;-66
2023/03/04 06:45:21;;;;;;;8.70;2.22;;;5.70;99.90;;;;;;5070342;28;20048;-66
2023/03/04 06:47:48;;;;;;;9.38;2.40;;;5.80;99.90;;;;;;5070592;28;20041;-66
2023/03/04 06:50:14;;;;;;;12.35;2.30;;;5.80;99.90;;;;;;5072254;28;20048;-66
2023/03/04 06:52:41;;;;;;;6.28;1.85;;;5.80;99.90;;;;;;5076327;28;20393;-66
2023/03/04 06:55:09;;;;;;;8.52;2.10;;;5.80;99.90;;;;;;5071824;28;20093;-66
2023/03/04 06:57:36;;;;;;;8.32;2.10;;;5.80;99.90;;;;;;5070595;28;20053;-65
2023/03/04 07:00:04;;;;;;;6.95;1.60;;;5.80;99.90;;;;;;5070963;28;20048;-65
2023/03/04 07:02:33;;;;;;;4.15;1.90;;;5.80;99.90;;;;;;5089938;28;20052;-66
2023/03/04 07:04:59;;;;;;;8.77;2.40;;;5.90;99.90;;;;;;5091833;28;20105;-66
2023/03/04 07:07:26;;;;;;;7.82;1.80;;;6.00;99.90;;;;;;5073945;28;20507;-65
2023/03/04 07:09:53;;;;;;;6.47;1.75;;;6.10;99.90;;;;;;5090064;28;20052;-64
2023/03/04 07:12:20;;;;;;;7.32;2.38;;;6.10;99.90;;;;;;5080213;28;20055;-66
2023/03/04 07:14:47;;;;;;;6.25;2.38;;;6.20;99.90;;;;;;5084103;28;20496;-66
2023/03/04 07:17:14;;;;;;;7.75;1.58;;;6.10;99.90;;;;;;5083852;28;20081;-66
2023/03/04 07:19:43;;;;;;;9.15;2.22;;;6.20;99.90;;;;;;5086763;28;20048;-67
2023/03/04 07:22:10;;;;;;;8.95;2.10;;;6.20;99.90;;;;;;5083948;28;20052;-66
2023/03/04 07:24:37;;;;;;;8.52;1.83;;;6.20;99.90;;;;;;5067096;28;20052;-66
2023/03/04 07:27:04;;;;;;;10.88;1.65;;;6.20;99.90;;;;;;5069373;28;20109;-66
2023/03/04 07:29:31;;;;;;;4.40;1.40;;;6.20;99.90;;;;;;5090940;28;20444;-67
2023/03/04 07:31:58;;;;;;;6.25;1.50;;;6.20;99.90;;;;;;5083031;28;20396;-66
2023/03/04 07:34:24;;;;;;;7.57;1.85;;;6.20;99.90;;;;;;5069813;28;20044;-65
2023/03/04 07:36:53;;;;;;;9.65;1.95;;;6.30;99.90;;;;;;5073266;28;20045;-65
2023/03/04 07:39:20;;;;;;;9.93;2.33;;;6.40;99.90;;;;;;5083425;28;20048;-65
2023/03/04 07:41:47;;;;;;;5.53;1.77;;;6.50;99.90;;;;;;5090041;28;20052;-65
2023/03/04 07:44:13;;;;;;;10.85;2.70;;;6.70;99.90;;;;;;5085674;28;20450;-66
2023/03/04 07:46:41;;;;;;;12.85;2.00;;;6.70;99.90;;;;;;5071413;28;20094;-66
2023/03/04 07:49:08;;;;;;;6.43;2.15;;;6.80;99.90;;;;;;5085235;28;20040;-67
2023/03/04 07:51:35;;;;;;;9.98;2.50;;;6.80;99.90;;;;;;5086405;28;20048;-66
2023/03/04 07:54:03;;;;;;;8.95;3.40;;;6.90;99.90;;;;;;5072647;28;20426;-66
2023/03/04 07:56:32;;;;;;;12.63;2.60;;;6.90;99.90;;;;;;5088917;28;20048;-66
2023/03/04 07:58:59;;;;;;;10.55;2.85;;;6.90;99.90;;;;;;5073381;28;20153;-66
2023/03/04 08:01:29;;;;;;;14.73;3.97;;;6.80;99.90;;;;;;5073690;28;20059;-67
2023/03/04 08:03:56;;;;;;;16.88;3.35;;;6.70;99.90;;;;;;5087833;28;20055;-66
2023/03/04 08:06:24;;;;;;;16.17;3.85;;;6.60;99.90;;;;;;5087724;28;20488;-66
2023/03/04 08:08:56;;;;;;;17.25;3.53;;;6.60;99.90;;;;;;5068894;28;20056;-66
2023/03/04 08:11:25;;;;;;;15.23;4.15;;;6.50;99.90;;;;;;5089308;28;20048;-66
2023/03/04 08:13:53;;;;;;;16.65;4.72;;;6.50;99.90;;;;;;5090530;28;20074;-66
2023/03/04 08:16:21;;;;;;;16.23;3.53;;;6.50;99.90;;;;;;5089486;28;20052;-66
2023/03/04 08:18:50;;;;;;;14.90;3.78;;;6.50;99.90;;;;;;5067276;28;20052;-66
2023/03/04 08:21:19;;;;;;;18.25;4.75;;;6.60;99.90;;;;;;5075269;28;20052;-66
2023/03/04 08:23:47;;;;;;;15.93;4.15;;;6.60;99.90;;;;;;5088315;28;20044;-66
2023/03/04 08:26:17;;;;;;;19.85;4.50;;;6.70;99.90;;;;;;5067648;28;20043;-66
2023/03/04 08:28:46;;;;;;;15.95;3.88;;;6.60;99.90;;;;;;5087334;28;20060;-67
2023/03/04 08:31:14;;;;;;;19.50;4.03;;;6.70;99.90;;;;;;5086516;28;20044;-65
2023/03/04 08:33:41;;;;;;;14.77;3.95;;;6.70;99.90;;;;;;5096481;28;20446;-66
2023/03/04 08:36:08;;;;;;;13.23;2.90;;;6.80;99.90;;;;;;5095644;28;20373;-65
2023/03/04 08:38:35;;;;;;;17.95;3.40;;;6.80;99.90;;;;;;5073550;28;20098;-65
2023/03/04 08:41:03;;;;;;;10.98;3.95;;;6.70;99.90;;;;;;5069757;28;20063;-65
2023/03/04 08:43:31;;;;;;;20.02;3.35;;;6.70;99.90;;;;;;5087680;28;20409;-66
2023/03/04 08:45:59;;;;;;;18.88;3.80;;;6.70;99.90;;;;;;5087489;28;20055;-66
2023/03/04 08:48:26;;;;;;;18.63;3.50;;;6.70;99.90;;;;;;5087596;28;20158;-66
2023/03/04 08:50:53;;;;;;;16.77;3.88;;;6.70;99.90;;;;;;5088995;28;20056;-66
2023/03/04 08:53:21;;;;;;;10.93;3.33;;;6.70;99.90;;;;;;5094142;28;20421;-66
2023/03/04 08:55:48;;;;;;;14.27;3.97;;;6.70;99.90;;;;;;5067073;28;20064;-66
2023/03/04 08:58:15;;;;;;;18.25;3.78;;;6.70;99.90;;;;;;5087601;28;20051;-65
2023/03/04 09:00:47;;;;;;;13.20;3.78;;;6.70;99.90;;;;;;5086704;28;20527;-65
2023/03/04 09:03:17;;;;;;;12.95;3.35;;;6.80;99.90;;;;;;5088713;28;20059;-66
2023/03/04 09:05:45;;;;;;;16.48;3.75;;;6.90;99.90;;;;;;5086889;28;20045;-65
2023/03/04 09:08:12;;;;;;;12.30;3.35;;;6.90;99.90;;;;;;5086675;28;20077;-65
2023/03/04 09:10:39;;;;;;;11.07;3.50;;;7.00;99.90;;;;;;5088596;28;20418;-65
2023/03/04 09:13:06;;;;;;;11.65;4.03;;;7.00;99.90;;;;;;5071312;28;20048;-66
2023/03/04 09:15:34;;;;;;;11.32;3.45;;;7.00;99.90;;;;;;5067786;28;20063;-65
2023/03/04 09:18:02;;;;;;;13.57;3.42;;;7.10;99.90;;;;;;5078127;28;20047;-66
2023/03/04 09:20:31;;;;;;;13.77;3.10;;;7.20;99.90;;;;;;5086664;28;20442;-66
2023/03/04 09:22:58;;;;;;;9.85;3.28;;;7.30;99.90;;;;;;5087684;28;20060;-65
2023/03/04 09:25:25;;;;;;;12.27;2.42;;;7.30;99.90;;;;;;5088328;28;20416;-65
2023/03/04 09:27:52;;;;;;;11.20;2.65;;;7.30;99.90;;;;;;5069875;28;20093;-66
2023/03/04 09:30:20;;;;;;;9.15;2.45;;;7.30;99.90;;;;;;5072897;28;20052;-66
2023/03/04 09:32:46;;;;;;;12.25;2.80;;;7.30;99.90;;;;;;5088540;28;20052;-66
2023/03/04 09:35:13;;;;;;;15.57;2.70;;;7.30;99.90;;;;;;5070639;28;20063;-66
2023/03/04 09:37:42;;;;;;;9.48;2.28;;;7.30;99.90;;;;;;5084338;28;20101;-67
2023/03/04 09:40:16;;;;;;;7.43;2.05;;;7.20;99.90;;;;;;5085863;28;20041;-66
2023/03/04 09:42:47;;;;;;;13.80;3.00;;;7.30;99.90;;;;;;5090960;28;20044;-66
2023/03/04 09:45:18;;;;;;;9.25;2.67;;;7.30;99.90;;;;;;5086908;28;20429;-66
2023/03/04 09:47:46;;;;;;;8.73;2.47;;;7.30;99.90;;;;;;5068953;28;20557;-67
2023/03/04 09:50:14;;;;;;;11.05;1.98;;;7.40;99.90;;;;;;5067433;28;20118;-66
2023/03/04 09:52:56;;;;;;;8.73;1.88;;;7.40;99.90;;;;;;5096361;28;20058;-66
2023/03/04 09:55:25;;;;;;;6.38;1.90;;;7.50;99.90;;;;;;5074003;28;20054;-65
2023/03/04 09:57:57;;;;;;;5.68;1.52;;;7.60;99.90;;;;;;5077891;28;20106;-66
2023/03/04 10:00:30;;;;;;;9.30;1.55;;;7.70;99.90;;;;;;5100188;28;20052;-65
2023/03/04 10:03:10;;;;;;;6.13;1.77;;;8.00;99.90;;;;;;5094545;28;20040;-66
2023/03/04 10:05:42;;;;;;;7.75;1.95;;;8.00;99.90;;;;;;5093583;28;20044;-65
2023/03/04 10:08:24;;;;;;;10.02;3.03;;;8.10;99.90;;;;;;5093569;28;20040;-65
2023/03/04 10:10:52;;;;;;;13.68;2.90;;;8.10;99.90;;;;;;5091943;28;20044;-65
2023/03/04 10:13:25;;;;;;;9.52;2.83;;;7.90;99.90;;;;;;5093761;28;20117;-65
2023/03/04 10:15:53;;;;;;;15.00;3.15;;;7.90;99.90;;;;;;5093973;28;20051;-65
2023/03/04 10:18:23;;;;;;;15.68;3.53;;;7.80;99.90;;;;;;5074701;28;20054;-66
2023/03/04 10:20:55;;;;;;;13.75;3.13;;;7.90;99.90;;;;;;5075958;28;20056;-65
2023/03/04 10:23:26;;;;;;;17.52;3.20;;;7.90;99.90;;;;;;5094264;28;20105;-65
2023/03/04 10:25:53;;;;;;;15.20;4.07;;;7.90;99.90;;;;;;5075304;28;20063;-66
2023/03/04 10:28:25;;;;;;;19.38;4.70;;;7.90;99.90;;;;;;5091576;28;20496;-66
2023/03/04 10:30:59;;;;;;;12.60;3.50;;;8.00;99.90;;;;;;5075559;28;20040;-65
2023/03/04 10:33:29;;;;;;;18.00;3.80;;;8.00;99.90;;;;;;5093155;28;20052;-66
2023/03/04 10:36:00;;;;;;;21.15;5.50;;;8.00;99.90;;;;;;5093720;28;20048;-65
2023/03/04 10:38:32;;;;;;;15.40;3.88;;;8.00;99.90;;;;;;5073945;28;20052;-65
2023/03/04 10:40:59;;;;;;;20.02;4.68;;;7.90;99.90;;;;;;5073269;28;20139;-65
2023/03/04 10:43:27;;;;;;;17.65;3.65;;;8.00;99.90;;;;;;5093682;28;20093;-65
2023/03/04 10:45:56;;;;;;;14.23;4.00;;;8.10;99.90;;;;;;5075361;28;20052;-66
2023/03/04 10:48:26;;;;;;;19.30;3.47;;;8.20;99.90;;;;;;5075093;28;20055;-65
2023/03/04 10:50:53;;;;;;;17.10;4.20;;;8.40;99.90;;;;;;5093486;28;20051;-65
2023/03/04 10:53:29;;;;;;;19.05;3.92;;;8.80;99.90;;;;;;5074969;28;20118;-65
2023/03/04 10:55:58;;;;;;;11.50;3.20;;;9.10;99.90;;;;;;5074213;28;20056;-66
2023/03/04 10:58:24;;;;;;;15.63;3.63;;;9.00;99.90;;;;;;5091398;28;20040;-66
2023/03/04 11:01:01;;;;;;;11.63;3.53;;;9.00;99.90;;;;;;5074902;28;20572;-66
2023/03/04 11:03:33;;;;;;;13.48;2.97;;;8.90;99.90;;;;;;5074767;28;21253;-66
2023/03/04 11:06:18;;;;;;;15.25;3.67;;;8.90;99.90;;;;;;5093091;28;20080;-66
2023/03/04 11:08:52;;;;;;;9.85;2.83;;;8.80;99.90;;;;;;5072995;28;20105;-66
2023/03/04 11:11:33;;;;;;;15.88;3.58;;;8.80;99.90;;;;;;5091450;28;20105;-66
2023/03/04 11:14:03;;;;;;;14.38;3.30;;;8.80;99.90;;;;;;5073868;28;20052;-66
2023/03/04 11:16:33;;;;;;;16.92;3.90;;;8.80;99.90;;;;;;5090528;28;20051;-66
2023/03/04 11:19:06;;;;;;;10.93;2.83;;;8.70;99.90;;;;;;5056012;28;20062;-65
2023/03/04 11:21:40;;;;;;;19.48;3.83;;;8.80;99.90;;;;;;5083316;28;20048;-64
2023/03/04 11:24:13;;;;;;;14.98;3.40;;;9.00;99.90;;;;;;5069622;28;20125;-64
2023/03/04 11:26:46;;;;;;;12.40;2.92;;;9.60;99.90;;;;;;5090551;28;20105;-66
2023/03/04 11:29:17;;;;;;;13.55;2.80;;;10.20;99.90;;;;;;5066626;28;20048;-66
2023/03/04 11:31:50;;;;;;;10.57;3.72;;;10.30;99.90;;;;;;5067849;28;20060;-65
2023/03/04 11:34:34;;;;;;;23.50;3.45;;;10.00;99.90;;;;;;5088225;28;20047;-65
2023/03/04 11:37:06;;;;;;;16.00;3.28;;;9.40;99.90;;;;;;5088828;28;20047;-66
2023/03/04 11:39:37;;;;;;;12.80;3.75;;;9.80;99.90;;;;;;5066447;28;20488;-65
2023/03/04 11:42:17;;;;;;;9.43;2.90;;;11.20;99.90;;;;;;5088148;28;20105;-66
2023/03/04 11:44:44;;;;;;;12.57;2.73;;;12.50;99.90;;;;;;5063984;28;20156;-65
2023/03/04 11:47:28;;;;;;;9.20;2.67;;;12.50;99.90;;;;;;5073022;28;20047;-66
2023/03/04 11:50:22;;;;;;;9.35;2.50;;;12.90;99.90;;;;;;5087666;28;20044;-66
2023/03/04 11:53:24;;;;;;;10.15;2.72;;;13.10;99.90;;;;;;5070258;28;20060;-66
2023/03/04 11:56:03;;;;;;;11.93;2.85;;;12.40;99.90;;;;;;5086319;28;20051;-66
2023/03/04 11:58:58;;;;;;;14.20;3.05;;;12.50;99.90;;;;;;5083869;28;20049;-66
2023/03/04 12:01:31;;;;;;;12.25;3.85;;;12.70;99.90;;;;;;5083320;28;20127;-65
2023/03/04 12:04:14;;;;;;;10.60;3.03;;;12.30;99.90;;;;;;5082818;28;20126;-66
2023/03/04 12:06:59;;;;;;;14.18;3.17;;;12.20;99.90;;;;;;5085502;28;20097;-66
2023/03/04 12:09:57;;;;;;;18.00;4.93;;;12.00;99.90;;;;;;5087522;28;20117;-65
2023/03/04 12:12:41;;;;;;;15.65;4.10;;;11.90;99.90;;;;;;5069208;28;20040;-65
2023/03/04 12:15:18;;;;;;;8.60;3.00;;;11.50;99.90;;;;;;5091612;28;20105;-65
2023/03/04 12:18:17;;;;;;;16.42;3.20;;;11.40;99.90;;;;;;5092035;28;20048;-65
2023/03/04 12:21:08;;;;;;;14.88;3.53;;;10.70;99.90;;;;;;5072261;28;20060;-65
2023/03/04 12:24:11;;;;;;;13.75;3.53;;;10.40;99.90;;;;;;5074407;28;20113;-65
2023/03/04 12:26:43;;;;;;;8.88;2.53;;;10.20;99.90;;;;;;5101879;28;20089;-65
2023/03/04 12:29:20;;;;;;;11.05;3.00;;;9.70;99.90;;;;;;5111463;28;20055;-66
2023/03/04 12:31:52;;;;;;;11.15;3.25;;;9.50;99.90;;;;;;5110715;28;20052;-66
2023/03/04 12:34:38;;;;;;;7.88;2.42;;;9.70;99.90;;;;;;5111408;28;20453;-65
2023/03/04 12:37:25;;;;;;;11.50;2.72;;;10.10;99.90;;;;;;5092904;28;20063;-65
2023/03/04 12:40:06;;;;;;;8.75;2.63;;;11.30;99.90;;;;;;5093552;28;20052;-66
2023/03/04 12:42:45;;;;;;;8.13;1.90;;;13.10;99.90;;;;;;5093541;28;20078;-65
2023/03/04 12:45:21;;;;;;;6.07;2.23;;;14.90;99.50;;;;;;5094237;28;20055;-65
2023/03/04 12:48:01;;;;;;;10.20;2.13;;;15.70;97.10;;;;;;5075725;28;20297;-65
2023/03/04 12:50:36;;;;;;;12.27;2.33;;;15.70;95.00;;;;;;5094914;28;20545;-67
2023/03/04 12:53:16;;;;;;;12.80;2.50;;;15.40;95.50;;;;;;5094966;28;20138;-66
2023/03/04 12:55:45;;;;;;;8.07;2.70;;;15.40;95.90;;;;;;5095813;28;20055;-67
2023/03/04 12:58:16;;;;;;;9.52;3.20;;;14.90;95.70;;;;;;5085838;28;20443;-67
2023/03/04 13:00:51;;;;;;;7.38;2.10;;;14.00;97.60;;;;;;5084904;28;20131;-67
2023/03/04 13:03:28;;;;;;;5.43;2.13;;;12.90;98.80;;;;;;5068049;28;20052;-67